Time;durP1;ratioP1;P1;durP2;ratioP2;P2;SDS_P1;SDS_P2;PMS_P1;PMS_P2;Temp;Humidity;BMP_temperature;BMP_pressure;BME280_temperature;BME280_humidity;BME280_pressure;Samples;Min_cycle;Max_cycle;Signal;HPM_P1;HPM_P2
2023/03/23 00:01:56;;;;;;;21.57;14.77;;;10.50;99.90;;;;;;5031910;28;20195;-71
2023/03/23 00:04:22;;;;;;;19.10;14.00;;;10.50;99.90;;;;;;5032805;28;20412;-74
2023/03/23 00:06:49;;;;;;;18.67;14.00;;;10.50;99.90;;;;;;5032852;28;20221;-71
2023/03/23 00:09:14;;;;;;;20.23;13.27;;;10.50;99.90;;;;;;5032645;28;20373;-73
2023/03/23 00:11:41;;;;;;;19.90;15.47;;;10.60;99.90;;;;;;5031267;28;20400;-76
2023/03/23 00:14:12;;;;;;;17.27;12.83;;;10.60;99.90;;;;;;5035778;28;20238;-72
2023/03/23 00:16:40;;;;;;;22.00;15.77;;;10.50;99.90;;;;;;5052156;28;20401;-72
2023/03/23 00:19:12;;;;;;;18.87;14.30;;;10.60;99.90;;;;;;5052394;28;20380;-73
2023/03/23 00:21:39;;;;;;;23.83;13.87;;;10.50;99.90;;;;;;5051588;28;20398;-72
2023/03/23 00:24:06;;;;;;;21.70;15.07;;;10.60;99.90;;;;;;5052467;28;20397;-73
2023/03/23 00:26:36;;;;;;;21.30;14.43;;;10.60;99.90;;;;;;5051363;28;20418;-71
2023/03/23 00:29:03;;;;;;;24.37;15.37;;;10.60;99.90;;;;;;5033228;28;20442;-74
2023/03/23 00:31:31;;;;;;;22.20;14.70;;;10.60;99.90;;;;;;5031543;28;20397;-71
2023/03/23 00:34:00;;;;;;;24.33;14.63;;;10.60;99.90;;;;;;5032549;28;20403;-70
2023/03/23 00:36:26;;;;;;;21.53;15.70;;;10.60;99.90;;;;;;5031926;28;20512;-72
2023/03/23 00:38:52;;;;;;;20.67;14.07;;;10.60;99.90;;;;;;5036002;28;20394;-70
2023/03/23 00:41:18;;;;;;;20.27;14.87;;;10.60;99.90;;;;;;5034653;28;20408;-74
2023/03/23 00:43:43;;;;;;;18.60;14.50;;;10.60;99.90;;;;;;5043351;28;20183;-74
2023/03/23 00:46:09;;;;;;;23.63;14.27;;;10.60;99.90;;;;;;5034993;28;20296;-71
2023/03/23 00:48:40;;;;;;;17.10;12.60;;;10.60;99.90;;;;;;5034639;28;20626;-72
2023/03/23 00:51:11;;;;;;;19.03;13.50;;;10.60;99.90;;;;;;5034876;28;20393;-72
2023/03/23 00:53:37;;;;;;;16.57;12.50;;;10.60;99.90;;;;;;5037461;28;20404;-73
2023/03/23 00:56:02;;;;;;;19.27;14.00;;;10.60;99.90;;;;;;5045690;28;20440;-72
2023/03/23 00:58:28;;;;;;;17.70;12.50;;;10.60;99.90;;;;;;5035410;28;20377;-73
2023/03/23 01:00:54;;;;;;;20.73;14.27;;;10.70;99.90;;;;;;5034976;28;20501;-71
2023/03/23 01:03:20;;;;;;;21.97;14.03;;;10.60;99.90;;;;;;5035654;28;20230;-72
2023/03/23 01:05:51;;;;;;;11.33;8.43;;;10.60;99.90;;;;;;5035484;28;20237;-73
2023/03/23 01:08:18;;;;;;;21.57;14.73;;;10.60;99.90;;;;;;5048152;28;20179;-71
2023/03/23 01:10:45;;;;;;;19.73;14.30;;;10.50;99.90;;;;;;5053685;28;20414;-71
2023/03/23 01:13:12;;;;;;;15.77;11.47;;;10.50;99.90;;;;;;5055388;28;20464;-72
2023/03/23 01:15:38;;;;;;;21.57;14.10;;;10.40;99.90;;;;;;5054706;28;20431;-72
2023/03/23 01:18:04;;;;;;;17.20;13.30;;;10.40;99.90;;;;;;5055274;28;20367;-71
2023/03/23 01:20:31;;;;;;;20.17;13.60;;;10.40;99.90;;;;;;5053251;28;20403;-72
2023/03/23 01:23:00;;;;;;;18.40;13.23;;;10.40;99.90;;;;;;5051528;28;20464;-70
2023/03/23 01:25:31;;;;;;;23.03;13.00;;;10.30;99.90;;;;;;5035365;28;20384;-71
2023/03/23 01:27:57;;;;;;;18.63;11.30;;;10.30;99.90;;;;;;5035203;28;20955;-73
2023/03/23 01:30:23;;;;;;;14.23;10.57;;;10.30;99.90;;;;;;5034279;28;20563;-73
2023/03/23 01:32:49;;;;;;;20.10;10.97;;;10.20;99.90;;;;;;5035088;28;20414;-72
2023/03/23 01:35:15;;;;;;;14.33;8.97;;;10.20;99.90;;;;;;5045212;28;20536;-72
2023/03/23 01:37:42;;;;;;;10.40;8.90;;;10.20;99.90;;;;;;5054138;28;20791;-73
2023/03/23 01:40:09;;;;;;;11.30;8.20;;;10.10;99.90;;;;;;5053893;28;20383;-73
2023/03/23 01:42:36;;;;;;;10.20;8.03;;;10.10;99.90;;;;;;5054624;28;20465;-71
2023/03/23 01:45:28;;;;;;;13.93;8.43;;;10.10;99.90;;;;;;5054937;28;20886;-72
2023/03/23 01:48:04;;;;;;;9.50;6.20;;;10.10;99.90;;;;;;5052640;28;20525;-73
2023/03/23 01:50:36;;;;;;;8.70;6.83;;;10.00;99.90;;;;;;5053419;28;20403;-71
2023/03/23 01:53:04;;;;;;;9.27;6.87;;;10.00;99.90;;;;;;5054415;28;20399;-74
2023/03/23 01:55:30;;;;;;;9.20;7.03;;;9.90;99.90;;;;;;5054652;28;20415;-71
2023/03/23 01:57:57;;;;;;;9.93;7.03;;;10.00;99.90;;;;;;5054499;28;20402;-73
2023/03/23 02:00:24;;;;;;;7.50;6.43;;;10.00;99.90;;;;;;5053641;28;20364;-74
2023/03/23 02:02:52;;;;;;;8.43;6.80;;;10.00;99.90;;;;;;5048704;28;20536;-71
2023/03/23 02:05:37;;;;;;;6.70;5.90;;;10.00;99.90;;;;;;5054390;28;20513;-72
2023/03/23 02:08:05;;;;;;;8.37;6.30;;;10.00;99.90;;;;;;5054137;28;20396;-74
2023/03/23 02:10:32;;;;;;;7.10;6.40;;;10.00;99.90;;;;;;5053042;28;20486;-73
2023/03/23 02:13:00;;;;;;;6.60;6.00;;;10.10;99.90;;;;;;5054282;28;20937;-72
2023/03/23 02:15:33;;;;;;;8.73;6.70;;;10.10;99.90;;;;;;5053203;28;20443;-71
2023/03/23 02:18:30;;;;;;;10.00;7.50;;;10.10;99.90;;;;;;5054215;28;21026;-71
2023/03/23 02:21:28;;;;;;;10.13;7.53;;;10.10;99.90;;;;;;5053305;28;20725;-71
2023/03/23 02:24:07;;;;;;;9.63;7.73;;;10.10;99.90;;;;;;5053566;28;20396;-72
2023/03/23 02:26:36;;;;;;;10.30;9.20;;;10.10;99.90;;;;;;5053852;28;20407;-71
2023/03/23 02:29:08;;;;;;;10.70;8.30;;;10.10;99.90;;;;;;5052352;28;20463;-73
2023/03/23 02:31:58;;;;;;;14.13;9.60;;;10.10;99.90;;;;;;5053083;28;20416;-73
2023/03/23 02:34:49;;;;;;;13.60;8.80;;;10.10;99.90;;;;;;5034810;28;20496;-75
2023/03/23 02:37:27;;;;;;;9.00;8.10;;;10.10;99.90;;;;;;5033912;28;20391;-71
2023/03/23 02:39:59;;;;;;;16.20;9.63;;;10.10;99.90;;;;;;5033572;28;20423;-76
2023/03/23 02:42:31;;;;;;;10.40;9.20;;;10.10;99.90;;;;;;5038507;28;20436;-72
2023/03/23 02:45:03;;;;;;;11.63;8.47;;;10.10;99.90;;;;;;5051409;28;20388;-72
2023/03/23 02:47:30;;;;;;;12.97;9.33;;;10.10;99.90;;;;;;5052594;28;20396;-71
2023/03/23 02:49:58;;;;;;;13.33;9.10;;;10.10;99.90;;;;;;5053500;28;20417;-71
2023/03/23 02:52:30;;;;;;;10.00;7.87;;;10.10;99.90;;;;;;5053609;28;20744;-71
2023/03/23 02:54:59;;;;;;;9.83;7.93;;;10.20;99.90;;;;;;5054781;28;21010;-71
2023/03/23 02:57:27;;;;;;;12.83;8.80;;;10.10;99.90;;;;;;5047639;28;20404;-71
2023/03/23 02:59:53;;;;;;;9.40;7.80;;;10.10;99.90;;;;;;5052337;28;20368;-72
2023/03/23 03:02:29;;;;;;;9.30;7.10;;;10.10;99.90;;;;;;5052078;28;20437;-71
2023/03/23 03:05:18;;;;;;;8.40;7.10;;;10.10;99.90;;;;;;5053258;28;20987;-71
2023/03/23 03:07:59;;;;;;;10.47;6.80;;;10.10;99.90;;;;;;5051361;28;20399;-73
2023/03/23 03:10:32;;;;;;;9.40;6.20;;;10.10;99.90;;;;;;5051401;28;20405;-74
2023/03/23 03:13:30;;;;;;;7.70;5.90;;;10.10;99.90;;;;;;5053119;28;20786;-71
2023/03/23 03:16:16;;;;;;;7.10;5.93;;;10.00;99.90;;;;;;5051801;28;20442;-71
2023/03/23 03:19:02;;;;;;;7.23;5.30;;;10.00;99.90;;;;;;5053059;28;20403;-70
2023/03/23 03:21:32;;;;;;;6.60;6.00;;;10.00;99.90;;;;;;5052244;28;20411;-71
2023/03/23 03:24:00;;;;;;;6.60;6.00;;;9.90;99.90;;;;;;5052016;28;20412;-71
2023/03/23 03:26:27;;;;;;;5.80;5.20;;;9.90;99.90;;;;;;5051137;28;20744;-71
2023/03/23 03:28:53;;;;;;;4.90;4.37;;;9.90;99.90;;;;;;5053050;28;20732;-72
2023/03/23 03:31:33;;;;;;;4.93;4.33;;;9.90;99.90;;;;;;5052083;28;20376;-71
2023/03/23 03:34:01;;;;;;;4.70;4.27;;;9.90;1.00;;;;;;5052927;28;20376;-70
2023/03/23 03:36:34;;;;;;;4.80;4.30;;;9.90;99.90;;;;;;5052877;28;20453;-71
2023/03/23 03:39:07;;;;;;;4.13;3.73;;;9.80;99.90;;;;;;5051873;28;20826;-70
2023/03/23 03:41:35;;;;;;;4.23;3.80;;;9.70;99.90;;;;;;5052159;28;20792;-71
2023/03/23 03:44:01;;;;;;;5.60;4.70;;;9.70;99.90;;;;;;5052255;28;20514;-69
2023/03/23 03:46:29;;;;;;;4.90;4.10;;;9.60;99.90;;;;;;5052804;28;20391;-70
2023/03/23 03:48:58;;;;;;;5.20;4.40;;;9.60;99.90;;;;;;5052877;28;20377;-71
2023/03/23 03:51:27;;;;;;;4.70;4.20;;;9.60;1.00;;;;;;5051715;28;20474;-71
2023/03/23 03:53:53;;;;;;;11.57;4.10;;;9.60;1.00;;;;;;5036514;28;20580;-71
2023/03/23 03:56:21;;;;;;;6.43;5.13;;;9.60;1.00;;;;;;5032979;28;20431;-70
2023/03/23 03:58:48;;;;;;;4.40;3.97;;;9.70;1.00;;;;;;5032827;28;20868;-70
2023/03/23 04:01:15;;;;;;;5.07;4.07;;;9.70;1.00;;;;;;5031341;28;20428;-71
2023/03/23 04:03:42;;;;;;;4.40;3.83;;;9.70;1.00;;;;;;5032660;28;20369;-70
2023/03/23 04:06:09;;;;;;;3.77;3.47;;;9.60;1.00;;;;;;5031558;28;20392;-69
2023/03/23 04:08:41;;;;;;;3.60;3.30;;;9.60;1.00;;;;;;5047036;28;20486;-69
2023/03/23 04:11:08;;;;;;;4.37;3.30;;;9.60;1.00;;;;;;5051937;28;20408;-72
2023/03/23 04:13:33;;;;;;;3.03;2.43;;;9.60;1.00;;;;;;5056634;28;20724;-72
2023/03/23 04:16:00;;;;;;;3.00;2.43;;;9.50;1.00;;;;;;5056289;28;20476;-71
2023/03/23 04:18:25;;;;;;;4.10;2.60;;;9.50;1.00;;;;;;5055901;28;20404;-70
2023/03/23 04:20:52;;;;;;;1.73;1.63;;;9.50;1.00;;;;;;5049596;28;20920;-69
2023/03/23 04:23:19;;;;;;;2.30;2.10;;;9.50;1.00;;;;;;5036232;28;20881;-69
2023/03/23 04:25:56;;;;;;;2.10;1.83;;;9.50;1.00;;;;;;5036362;28;20722;-69
2023/03/23 04:28:23;;;;;;;2.10;1.97;;;9.50;1.00;;;;;;5036443;28;20404;-72
2023/03/23 04:30:55;;;;;;;2.40;2.20;;;9.40;1.00;;;;;;5035523;28;20398;-70
2023/03/23 04:33:24;;;;;;;3.80;2.67;;;9.40;1.00;;;;;;5036107;28;20414;-71
2023/03/23 04:35:51;;;;;;;2.80;1.83;;;9.40;1.00;;;;;;5049829;28;20865;-69
2023/03/23 04:38:20;;;;;;;2.27;1.87;;;9.40;1.00;;;;;;5056134;28;20379;-69
2023/03/23 04:40:47;;;;;;;1.80;1.70;;;9.40;1.00;;;;;;5055157;28;20374;-70
2023/03/23 04:43:14;;;;;;;2.40;1.77;;;9.40;1.00;;;;;;5056002;28;20399;-70
2023/03/23 04:45:45;;;;;;;3.77;2.00;;;9.40;1.00;;;;;;5056075;28;20935;-69
2023/03/23 04:48:11;;;;;;;2.00;1.70;;;9.30;1.00;;;;;;5054812;28;20392;-69
2023/03/23 04:50:37;;;;;;;1.70;1.60;;;9.40;1.00;;;;;;5038725;28;20412;-69
2023/03/23 04:53:04;;;;;;;3.33;1.90;;;9.40;1.00;;;;;;5034015;28;20423;-72
2023/03/23 04:55:35;;;;;;;1.33;1.23;;;9.40;1.00;;;;;;5035726;28;20537;-70
2023/03/23 04:58:02;;;;;;;3.30;1.50;;;9.40;1.00;;;;;;5035003;28;20400;-70
2023/03/23 05:00:29;;;;;;;1.90;1.80;;;9.30;99.90;;;;;;5033689;28;20408;-70
2023/03/23 05:02:55;;;;;;;1.90;1.80;;;9.30;99.90;;;;;;5055375;28;20407;-69
2023/03/23 05:05:22;;;;;;;6.10;1.50;;;9.30;99.90;;;;;;5055567;28;20402;-70
2023/03/23 05:07:48;;;;;;;2.53;1.57;;;9.20;99.90;;;;;;5055413;28;20428;-70
2023/03/23 05:10:16;;;;;;;2.00;1.80;;;9.20;99.90;;;;;;5053104;28;20409;-69
2023/03/23 05:12:42;;;;;;;2.00;1.90;;;9.20;99.90;;;;;;5041030;28;20886;-69
2023/03/23 05:15:10;;;;;;;2.30;2.10;;;9.20;99.90;;;;;;5035348;28;20429;-69
2023/03/23 05:17:36;;;;;;;1.80;1.70;;;9.20;99.90;;;;;;5035480;28;20387;-70
2023/03/23 05:20:07;;;;;;;1.43;1.33;;;9.20;99.90;;;;;;5035000;28;20711;-70
2023/03/23 05:22:33;;;;;;;2.03;1.83;;;9.30;1.00;;;;;;5035174;28;20522;-70
2023/03/23 05:25:02;;;;;;;2.10;2.00;;;9.20;99.90;;;;;;5035417;28;20936;-69
2023/03/23 05:27:30;;;;;;;3.60;3.30;;;9.20;99.90;;;;;;5046505;28;20637;-69
2023/03/23 05:29:59;;;;;;;3.40;3.10;;;9.20;99.90;;;;;;5054202;28;20375;-70
2023/03/23 05:32:34;;;;;;;3.80;3.50;;;9.20;99.90;;;;;;5054331;28;20429;-70
2023/03/23 05:35:01;;;;;;;4.80;4.43;;;9.30;1.00;;;;;;5055163;28;20434;-69
2023/03/23 05:37:34;;;;;;;4.80;4.40;;;9.30;1.00;;;;;;5053738;28;20479;-69
2023/03/23 05:40:04;;;;;;;7.03;5.50;;;9.40;1.00;;;;;;5053566;28;20396;-70
2023/03/23 05:42:32;;;;;;;6.00;5.50;;;9.40;1.00;;;;;;5054729;28;20481;-69
2023/03/23 05:44:58;;;;;;;8.87;6.30;;;9.40;1.00;;;;;;5054913;28;20809;-70
2023/03/23 05:47:25;;;;;;;10.93;6.90;;;9.50;1.00;;;;;;5054745;28;20387;-69
2023/03/23 05:49:51;;;;;;;8.30;7.40;;;9.50;1.00;;;;;;5053887;28;20425;-70
2023/03/23 05:52:18;;;;;;;9.63;8.10;;;9.60;1.00;;;;;;5053980;28;20406;-69
2023/03/23 05:54:44;;;;;;;13.00;9.50;;;9.60;1.00;;;;;;5050463;28;20439;-69
2023/03/23 05:57:10;;;;;;;10.93;9.83;;;9.70;1.00;;;;;;5034720;28;20466;-69
2023/03/23 05:59:37;;;;;;;13.23;10.97;;;9.70;1.00;;;;;;5034670;28;20381;-69
2023/03/23 06:02:03;;;;;;;13.97;11.57;;;9.80;1.00;;;;;;5033047;28;20435;-71
2023/03/23 06:04:28;;;;;;;13.73;10.97;;;9.90;1.00;;;;;;5033497;28;20447;-69
2023/03/23 06:06:54;;;;;;;18.20;12.73;;;10.00;1.00;;;;;;5034070;28;20398;-71
2023/03/23 06:09:21;;;;;;;24.23;13.20;;;10.00;1.00;;;;;;5033929;28;20850;-69
2023/03/23 06:11:47;;;;;;;17.87;13.80;;;10.10;1.00;;;;;;5033484;28;20187;-70
2023/03/23 06:14:13;;;;;;;17.13;14.50;;;10.10;1.00;;;;;;5034324;28;20396;-69
2023/03/23 06:16:39;;;;;;;14.73;12.77;;;10.20;1.00;;;;;;5034297;28;20433;-68
2023/03/23 06:19:05;;;;;;;17.70;15.83;;;10.30;1.00;;;;;;5034339;28;20408;-71
2023/03/23 06:21:32;;;;;;;14.07;12.60;;;10.30;1.00;;;;;;5033385;28;20424;-70
2023/03/23 06:23:59;;;;;;;15.83;14.17;;;10.40;1.00;;;;;;5033455;28;20644;-70
2023/03/23 06:26:30;;;;;;;20.63;15.20;;;10.40;1.00;;;;;;5033956;28;20383;-70
2023/03/23 06:28:57;;;;;;;17.77;14.27;;;10.50;1.00;;;;;;5034209;28;20406;-69
2023/03/23 06:31:24;;;;;;;15.60;13.33;;;10.60;1.00;;;;;;5033137;28;20465;-69
2023/03/23 06:33:50;;;;;;;21.90;13.80;;;10.60;1.00;;;;;;5032259;28;20421;-70
2023/03/23 06:36:16;;;;;;;20.60;14.97;;;10.60;1.00;;;;;;5041114;28;20908;-71
2023/03/23 06:38:42;;;;;;;20.03;13.70;;;10.60;1.00;;;;;;5053813;28;20408;-70
2023/03/23 06:41:08;;;;;;;16.70;13.90;;;10.70;1.00;;;;;;5052789;28;20445;-70
2023/03/23 06:43:37;;;;;;;17.27;12.63;;;10.80;1.00;;;;;;5053805;28;20754;-74
2023/03/23 06:46:03;;;;;;;17.10;13.80;;;10.80;1.00;;;;;;5037080;28;20505;-72
2023/03/23 06:48:29;;;;;;;17.77;12.90;;;10.80;1.00;;;;;;5033614;28;20963;-71
2023/03/23 06:50:55;;;;;;;22.57;13.87;;;10.80;1.00;;;;;;5032938;28;20404;-67
2023/03/23 06:53:20;;;;;;;17.40;14.60;;;10.80;1.00;;;;;;5033190;28;20199;-71
2023/03/23 06:55:46;;;;;;;24.10;14.53;;;10.80;1.00;;;;;;5032500;28;20195;-68
2023/03/23 06:58:12;;;;;;;18.83;13.37;;;10.90;1.00;;;;;;5033718;28;20167;-71
2023/03/23 07:00:40;;;;;;;19.00;13.53;;;10.90;1.00;;;;;;5032508;28;20373;-68
2023/03/23 07:03:06;;;;;;;18.47;14.60;;;11.00;1.00;;;;;;5032870;28;20385;-71
2023/03/23 07:05:33;;;;;;;22.87;14.50;;;11.00;1.00;;;;;;5033319;28;20437;-69
2023/03/23 07:07:59;;;;;;;16.37;11.13;;;11.00;1.00;;;;;;5033419;28;20892;-69
2023/03/23 07:10:25;;;;;;;13.97;12.47;;;11.00;1.00;;;;;;5032445;28;20388;-69
2023/03/23 07:12:51;;;;;;;15.23;12.17;;;11.00;1.00;;;;;;5033217;28;20442;-69
2023/03/23 07:15:17;;;;;;;15.20;11.37;;;11.00;1.00;;;;;;5033406;28;20731;-69
2023/03/23 07:17:42;;;;;;;18.73;13.47;;;10.90;1.00;;;;;;5033418;28;20660;-71
2023/03/23 07:20:09;;;;;;;14.07;11.17;;;10.90;1.00;;;;;;5031646;28;20456;-69
2023/03/23 07:22:35;;;;;;;19.03;11.73;;;10.80;1.00;;;;;;5032704;28;20228;-70
2023/03/23 07:25:01;;;;;;;14.00;11.87;;;10.80;1.00;;;;;;5031928;28;20742;-71
2023/03/23 07:27:27;;;;;;;10.33;9.17;;;10.80;1.00;;;;;;5033183;28;20171;-70
2023/03/23 07:29:53;;;;;;;13.77;10.53;;;10.80;1.00;;;;;;5032851;28;20472;-70
2023/03/23 07:32:18;;;;;;;14.60;11.27;;;10.80;1.00;;;;;;5031965;28;20446;-70
2023/03/23 07:34:44;;;;;;;16.90;12.67;;;10.80;1.00;;;;;;5032896;28;20286;-71
2023/03/23 07:37:10;;;;;;;15.20;12.70;;;10.80;1.00;;;;;;5033045;28;20207;-71
2023/03/23 07:39:36;;;;;;;11.17;9.97;;;10.90;1.00;;;;;;5033052;28;20170;-70
2023/03/23 07:42:02;;;;;;;11.60;10.27;;;10.90;1.00;;;;;;5031499;28;20474;-70
2023/03/23 07:44:28;;;;;;;12.10;9.97;;;10.80;1.00;;;;;;5042472;28;20421;-69
2023/03/23 07:46:53;;;;;;;11.07;8.57;;;10.90;1.00;;;;;;5046426;28;20174;-68
2023/03/23 07:49:20;;;;;;;15.30;9.40;;;10.80;1.00;;;;;;5050837;28;20513;-70
2023/03/23 07:51:46;;;;;;;13.90;9.40;;;10.80;1.00;;;;;;5050100;28;20206;-72
2023/03/23 07:54:13;;;;;;;8.00;7.30;;;10.90;1.00;;;;;;5050278;28;20545;-69
2023/03/23 07:56:39;;;;;;;8.20;7.23;;;10.90;1.00;;;;;;5035738;28;20206;-69
2023/03/23 07:59:06;;;;;;;11.50;7.57;;;10.90;1.00;;;;;;5036759;28;20861;-73
2023/03/23 08:01:32;;;;;;;9.10;6.43;;;10.80;1.00;;;;;;5035370;28;20183;-71
2023/03/23 08:03:59;;;;;;;8.17;6.47;;;10.80;1.00;;;;;;5036717;28;20796;-69
2023/03/23 08:06:25;;;;;;;9.07;6.10;;;10.90;1.00;;;;;;5036829;28;20384;-73
2023/03/23 08:08:52;;;;;;;10.53;6.10;;;10.90;99.90;;;;;;5039404;28;20431;-73
2023/03/23 08:11:18;;;;;;;6.57;5.20;;;10.90;99.90;;;;;;5055547;28;20729;-70
2023/03/23 08:13:45;;;;;;;8.67;4.63;;;10.90;99.90;;;;;;5055391;28;20921;-72
2023/03/23 08:16:11;;;;;;;7.53;4.57;;;10.80;99.90;;;;;;5055213;28;20968;-70
2023/03/23 08:18:38;;;;;;;3.87;3.50;;;10.80;99.90;;;;;;5056507;28;20438;-71
2023/03/23 08:21:05;;;;;;;9.30;3.77;;;10.80;99.90;;;;;;5054916;28;20379;-70
2023/03/23 08:23:33;;;;;;;6.80;4.33;;;10.80;99.90;;;;;;5038922;28;20425;-71
2023/03/23 08:25:59;;;;;;;8.00;4.27;;;10.90;99.90;;;;;;5036379;28;20401;-71
2023/03/23 08:28:25;;;;;;;4.10;2.83;;;10.90;99.90;;;;;;5036542;28;20776;-71
2023/03/23 08:30:51;;;;;;;6.00;3.10;;;10.90;99.90;;;;;;5035783;28;20397;-71
2023/03/23 08:33:18;;;;;;;5.37;3.40;;;10.90;99.90;;;;;;5035994;28;20798;-70
2023/03/23 08:35:43;;;;;;;8.73;3.13;;;11.00;99.90;;;;;;5035532;28;20199;-72
2023/03/23 08:38:11;;;;;;;4.07;2.53;;;11.20;99.90;;;;;;5035622;28;20397;-69
2023/03/23 08:40:37;;;;;;;7.73;3.33;;;11.30;99.90;;;;;;5051816;28;20429;-70
2023/03/23 08:43:04;;;;;;;5.40;3.00;;;11.30;99.90;;;;;;5056062;28;20387;-73
2023/03/23 08:45:30;;;;;;;3.60;2.50;;;11.20;99.90;;;;;;5054902;28;20400;-71
2023/03/23 08:47:56;;;;;;;3.60;2.90;;;11.20;99.90;;;;;;5056037;28;20733;-71
2023/03/23 08:50:26;;;;;;;8.07;2.97;;;11.10;99.90;;;;;;5044304;28;21035;-71
2023/03/23 08:52:53;;;;;;;3.27;2.93;;;11.10;99.90;;;;;;5035880;28;20472;-71
2023/03/23 08:55:21;;;;;;;5.90;2.57;;;11.20;99.90;;;;;;5038981;28;22249;-71
2023/03/23 08:57:47;;;;;;;10.00;2.60;;;11.10;99.90;;;;;;5053706;28;20753;-71
2023/03/23 09:00:19;;;;;;;5.33;2.70;;;11.00;99.90;;;;;;5053603;28;20568;-71
2023/03/23 09:02:51;;;;;;;3.77;2.07;;;11.10;99.90;;;;;;5055550;28;20391;-71
2023/03/23 09:05:19;;;;;;;3.50;2.73;;;11.20;99.90;;;;;;5055630;28;20380;-70
2023/03/23 09:07:48;;;;;;;15.47;3.73;;;11.40;99.90;;;;;;5055544;28;20786;-73
2023/03/23 09:10:14;;;;;;;9.70;3.60;;;11.50;99.90;;;;;;5036837;28;20419;-70
2023/03/23 09:12:41;;;;;;;13.20;3.93;;;11.70;99.90;;;;;;5038640;28;20502;-69
2023/03/23 09:15:09;;;;;;;8.43;3.30;;;11.80;99.90;;;;;;5054969;28;20412;-71
2023/03/23 09:17:41;;;;;;;4.13;2.07;;;12.00;99.90;;;;;;5055380;28;20772;-70
2023/03/23 09:20:12;;;;;;;7.40;2.90;;;12.00;99.90;;;;;;5054478;28;20758;-69
2023/03/23 09:22:41;;;;;;;5.40;3.20;;;11.90;98.00;;;;;;5046951;28;20424;-71
2023/03/23 09:25:08;;;;;;;4.00;2.77;;;12.00;90.20;;;;;;5035251;28;20433;-68
2023/03/23 09:27:36;;;;;;;8.63;2.80;;;12.10;82.00;;;;;;5035321;28;20418;-67
2023/03/23 09:30:06;;;;;;;5.50;2.43;;;12.00;33.90;;;;;;5034061;28;20443;-68
2023/03/23 09:32:35;;;;;;;5.40;2.00;;;12.00;1.00;;;;;;5034510;28;20958;-69
2023/03/23 09:35:02;;;;;;;6.20;2.70;;;12.10;1.00;;;;;;5035101;28;20483;-67
2023/03/23 09:37:29;;;;;;;4.30;2.00;;;12.40;1.00;;;;;;5035238;28;20376;-65
2023/03/23 09:39:55;;;;;;;8.77;3.13;;;12.80;1.00;;;;;;5034309;28;20396;-71
2023/03/23 09:42:41;;;;;;;5.10;2.13;;;12.90;1.00;;;;;;5034303;28;20412;-65
2023/03/23 09:45:23;;;;;;;6.07;2.70;;;13.00;1.00;;;;;;5034487;28;20237;-71
2023/03/23 09:48:17;;;;;;;5.10;1.87;;;13.10;1.00;;;;;;5034307;28;20893;-67
2023/03/23 09:50:46;;;;;;;12.37;3.07;;;13.30;1.00;;;;;;5041183;28;20416;-69
2023/03/23 09:53:21;;;;;;;2.77;2.40;;;13.30;99.90;;;;;;5041466;28;20926;-66
2023/03/23 09:55:48;;;;;;;18.37;4.27;;;13.20;99.90;;;;;;5037616;28;20968;-69
2023/03/23 09:58:26;;;;;;;6.00;2.10;;;12.90;99.90;;;;;;5034629;28;20953;-71
2023/03/23 10:01:19;;;;;;;6.77;2.50;;;12.80;99.90;;;;;;5033781;28;20402;-66
2023/03/23 10:03:46;;;;;;;6.33;1.93;;;13.20;99.90;;;;;;5034592;28;20407;-70
2023/03/23 10:06:17;;;;;;;7.67;2.60;;;13.60;99.90;;;;;;5034460;28;20381;-69
2023/03/23 10:08:53;;;;;;;2.43;2.23;;;13.70;99.90;;;;;;5032601;28;20889;-66
2023/03/23 10:11:42;;;;;;;12.03;2.70;;;13.60;99.90;;;;;;5033623;28;20415;-71
2023/03/23 10:14:31;;;;;;;2.90;1.80;;;13.40;99.90;;;;;;5034333;28;20385;-71
2023/03/23 10:17:17;;;;;;;4.87;2.23;;;13.10;99.90;;;;;;5042482;28;20418;-71
2023/03/23 10:20:08;;;;;;;8.83;2.17;;;12.60;99.90;;;;;;5052044;28;20543;-73
2023/03/23 10:22:39;;;;;;;6.40;2.60;;;12.40;99.90;;;;;;5037371;28;20468;-74
2023/03/23 10:25:06;;;;;;;8.03;2.13;;;12.30;99.90;;;;;;5072262;28;20383;-68
2023/03/23 10:27:50;;;;;;;12.57;2.87;;;12.30;99.90;;;;;;5073749;28;20412;-67
2023/03/23 10:30:25;;;;;;;4.20;1.80;;;12.50;99.90;;;;;;5048964;28;20519;-71
2023/03/23 10:33:03;;;;;;;7.60;2.60;;;12.50;99.90;;;;;;5053929;28;20488;-72
2023/03/23 10:35:40;;;;;;;4.93;2.50;;;12.80;99.90;;;;;;5053821;28;20426;-73
2023/03/23 10:38:19;;;;;;;5.17;2.40;;;13.10;99.90;;;;;;5053796;28;20485;-72
2023/03/23 10:41:00;;;;;;;8.77;3.50;;;13.50;99.90;;;;;;5052745;28;20728;-69
2023/03/23 10:43:26;;;;;;;6.67;2.30;;;13.80;99.90;;;;;;5039943;28;20417;-72
2023/03/23 10:46:01;;;;;;;4.73;1.93;;;13.90;99.90;;;;;;5032689;28;20421;-73
2023/03/23 10:48:38;;;;;;;6.93;2.90;;;14.20;99.90;;;;;;5033124;28;20398;-72
2023/03/23 10:51:09;;;;;;;5.07;1.87;;;14.40;99.90;;;;;;5032651;28;20448;-73
2023/03/23 10:53:43;;;;;;;6.80;2.57;;;14.30;99.90;;;;;;5033710;28;20413;-74
2023/03/23 10:56:33;;;;;;;5.33;2.00;;;14.10;93.50;;;;;;5033135;28;20477;-73
2023/03/23 10:59:11;;;;;;;6.60;2.00;;;13.80;93.40;;;;;;5033634;28;20418;-66
2023/03/23 11:01:37;;;;;;;12.07;3.90;;;14.00;93.50;;;;;;5032579;28;20430;-67
2023/03/23 11:04:04;;;;;;;7.63;1.90;;;14.20;88.80;;;;;;5033112;28;20407;-72
2023/03/23 11:06:37;;;;;;;6.00;2.33;;;14.20;88.70;;;;;;5033282;28;20891;-67
2023/03/23 11:09:14;;;;;;;5.00;2.50;;;14.20;77.10;;;;;;5033474;28;20410;-73
2023/03/23 11:11:42;;;;;;;10.67;2.50;;;14.10;66.50;;;;;;5032612;28;20591;-73
2023/03/23 11:14:28;;;;;;;4.13;2.00;;;14.20;48.00;;;;;;5033344;28;20417;-66
2023/03/23 11:16:55;;;;;;;4.03;2.27;;;14.40;50.20;;;;;;5032047;28;20418;-73
2023/03/23 11:19:23;;;;;;;14.40;2.60;;;14.30;30.20;;;;;;5033379;28;20391;-71
2023/03/23 11:21:52;;;;;;;8.60;1.87;;;14.50;33.60;;;;;;5032180;28;20414;-73
2023/03/23 11:24:18;;;;;;;5.43;1.80;;;14.90;33.80;;;;;;5032220;28;20810;-72
2023/03/23 11:26:45;;;;;;;3.47;1.83;;;14.70;14.60;;;;;;5032998;28;20398;-72
2023/03/23 11:29:18;;;;;;;5.10;2.10;;;14.10;1.00;;;;;;5033333;28;20524;-69
2023/03/23 11:31:52;;;;;;;5.40;1.70;;;13.90;1.00;;;;;;5032189;28;20406;-70
2023/03/23 11:34:43;;;;;;;7.40;1.83;;;13.70;1.00;;;;;;5033226;28;20386;-73
2023/03/23 11:37:15;;;;;;;5.63;2.20;;;13.60;1.00;;;;;;5033464;28;20838;-73
2023/03/23 11:39:54;;;;;;;11.47;3.03;;;13.80;1.00;;;;;;5032320;28;20426;-66
2023/03/23 11:42:29;;;;;;;13.63;2.60;;;13.70;1.00;;;;;;5031945;28;20555;-73
2023/03/23 11:45:16;;;;;;;7.90;2.23;;;14.00;1.00;;;;;;5032878;28;20865;-73
2023/03/23 11:47:56;;;;;;;8.57;2.90;;;14.00;1.00;;;;;;5032886;28;20787;-67
2023/03/23 11:50:26;;;;;;;5.23;1.90;;;14.30;1.00;;;;;;5031998;28;20414;-66
2023/03/23 11:52:57;;;;;;;5.60;2.20;;;14.50;1.00;;;;;;5031124;28;20458;-72
2023/03/23 11:55:31;;;;;;;10.33;2.07;;;14.80;1.00;;;;;;5050391;28;20453;-72
2023/03/23 11:58:05;;;;;;;4.40;2.80;;;15.20;1.00;;;;;;5052219;28;20390;-73
2023/03/23 12:00:31;;;;;;;4.57;2.50;;;15.00;1.00;;;;;;5050630;28;20921;-67
2023/03/23 12:03:15;;;;;;;9.30;2.67;;;15.30;1.00;;;;;;5052543;28;20516;-73
2023/03/23 12:06:06;;;;;;;8.23;2.40;;;15.30;1.00;;;;;;5052659;28;20163;-76
2023/03/23 12:08:41;;;;;;;7.10;2.30;;;15.00;1.00;;;;;;5039923;28;20460;-72
2023/03/23 12:11:27;;;;;;;4.23;2.37;;;15.20;1.00;;;;;;5038387;28;20834;-67
2023/03/23 12:14:18;;;;;;;3.93;2.33;;;15.00;1.00;;;;;;5037233;28;20422;-72
2023/03/23 12:17:02;;;;;;;4.80;2.50;;;14.30;1.00;;;;;;5031217;28;20818;-72
2023/03/23 12:19:31;;;;;;;7.23;2.07;;;14.20;1.00;;;;;;5031090;28;20442;-72
2023/03/23 12:22:15;;;;;;;5.20;2.40;;;14.40;1.00;;;;;;5030511;28;20425;-69
2023/03/23 12:24:44;;;;;;;9.23;2.87;;;14.70;1.00;;;;;;5034154;28;20432;-75
2023/03/23 12:27:35;;;;;;;7.37;3.57;;;14.80;1.00;;;;;;5032483;28;20398;-67
2023/03/23 12:30:37;;;;;;;9.80;2.47;;;15.40;1.00;;;;;;5032402;28;20409;-67
2023/03/23 12:33:34;;;;;;;6.03;2.13;;;15.50;1.00;;;;;;5034563;28;20936;-72
2023/03/23 12:36:15;;;;;;;15.03;2.80;;;15.60;1.00;;;;;;5037599;28;20472;-68
2023/03/23 12:38:59;;;;;;;13.67;2.80;;;15.50;1.00;;;;;;5035170;28;20448;-71
2023/03/23 12:41:41;;;;;;;12.33;2.77;;;15.90;1.00;;;;;;5033923;28;21025;-70
2023/03/23 12:44:14;;;;;;;9.30;2.20;;;15.20;1.00;;;;;;5036115;28;20426;-74
2023/03/23 12:46:53;;;;;;;8.67;3.43;;;14.90;1.00;;;;;;5036282;28;20402;-74
2023/03/23 12:49:37;;;;;;;7.73;2.83;;;14.80;1.00;;;;;;5034993;28;20437;-74
2023/03/23 12:52:23;;;;;;;9.40;2.80;;;15.10;1.00;;;;;;5032890;28;20466;-71
2023/03/23 12:55:00;;;;;;;12.10;3.20;;;15.50;1.00;;;;;;5055852;28;20893;-69
2023/03/23 12:57:35;;;;;;;10.87;2.93;;;16.30;1.00;;;;;;5055084;28;20996;-71
2023/03/23 13:00:34;;;;;;;6.70;2.70;;;17.20;1.00;;;;;;5055597;28;20439;-71
2023/03/23 13:03:17;;;;;;;8.60;3.17;;;17.90;1.00;;;;;;5055706;28;20409;-72
2023/03/23 13:06:41;;;;;;;12.40;2.93;;;18.30;1.00;;;;;;5051537;28;20925;-68
2023/03/23 13:09:15;;;;;;;7.07;2.10;;;18.60;1.00;;;;;;5033095;28;20437;-72